Terminal Aerodrome Forecast
Issued by NWS

Home | Current Version | Previous Version | Text Only | Print | Product List | Glossary Off
Versions: 1 2 3 4 5 6 7 8 9 10 11 12 13 14 15

383
FTUS43 KMPX 261720
TAFRWF
TAF
KRWF 261720Z 2618/2718 15006KT P6SM FEW040 BKN200
     FM270300 13004KT P6SM OVC100
     FM271100 16005KT P6SM VCSH SCT030 OVC080=

USA.gov is the U.S. government's official web portal to all federal, state and local government web resources and services.